createdAt,value
2023-02-28T00:00:00.114Z, 0
2023-02-28T00:02:00.227Z, 1.4
2023-02-28T00:04:00.119Z, 0.7
2023-02-28T00:06:00.127Z, 0.7
2023-02-28T00:08:00.113Z, 0.7
2023-02-28T00:10:00.131Z, 0.7
2023-02-28T00:12:00.141Z, 0.7
2023-02-28T00:14:00.128Z, 0
2023-02-28T00:16:00.111Z, 1.4
2023-02-28T00:18:00.167Z, 0.7
2023-02-28T00:20:00.110Z, 0.7
2023-02-28T00:22:00.112Z, 0.7
2023-02-28T00:24:00.148Z, 0.7
2023-02-28T00:26:00.123Z, 0.7
2023-02-28T00:28:00.114Z, 0.7
2023-02-28T00:30:00.106Z, 1.4
2023-02-28T00:32:00.212Z, 0.7
2023-02-28T00:34:00.101Z, 0.7
2023-02-28T00:36:00.167Z, 0.7
2023-02-28T00:38:00.075Z, 0.7
2023-02-28T00:40:00.077Z, 0.7
2023-02-28T00:42:00.050Z, 0
2023-02-28T00:44:00.068Z, 1.4
2023-02-28T00:46:00.134Z, 0.7
2023-02-28T00:48:00.074Z, 0
2023-02-28T00:50:00.100Z, 0.7
2023-02-28T00:52:00.056Z, 1.4
2023-02-28T00:54:00.042Z, 0.7
2023-02-28T00:56:00.080Z, 1.4
2023-02-28T00:58:00.106Z, 0
2023-02-28T01:00:00.176Z, 0.7
2023-02-28T01:02:00.100Z, 0.7
2023-02-28T01:04:00.110Z, 0.7
2023-02-28T01:06:00.105Z, 0
2023-02-28T01:08:00.148Z, 0
2023-02-28T01:10:00.136Z, 0.7
2023-02-28T01:12:00.136Z, 0
2023-02-28T01:14:00.099Z, 0
2023-02-28T01:16:00.225Z, 0
2023-02-28T01:18:00.122Z, 0
2023-02-28T01:20:00.158Z, 0
2023-02-28T01:22:00.107Z, 0.7
2023-02-28T01:24:00.096Z, 0.7
2023-02-28T01:26:00.115Z, 0
2023-02-28T01:28:00.123Z, 0
2023-02-28T01:30:00.103Z, 0.7
2023-02-28T01:32:00.166Z, 0.7
2023-02-28T01:34:00.104Z, 0.7
2023-02-28T01:36:00.136Z, 0.7
2023-02-28T01:38:09.487Z, 0.7
2023-02-28T01:40:00.075Z, 0
2023-02-28T01:42:00.053Z, 0.7
2023-02-28T01:44:00.074Z, 0.7
2023-02-28T01:46:00.189Z, 0.7
2023-02-28T01:48:00.077Z, 0
2023-02-28T01:50:00.063Z, 0.7
2023-02-28T01:52:00.060Z, 0
2023-02-28T01:54:00.039Z, 0.7
2023-02-28T01:56:00.036Z, 0
2023-02-28T01:58:00.142Z, 0
2023-02-28T02:00:00.154Z, 0
2023-02-28T02:02:00.194Z, 0.7
2023-02-28T02:04:00.124Z, 0.7
2023-02-28T02:06:00.121Z, 0.7
2023-02-28T02:08:00.079Z, 0.7
2023-02-28T02:10:00.125Z, 1.4
2023-02-28T02:12:00.114Z, 0.7
2023-02-28T02:14:00.095Z, 2.2
2023-02-28T02:16:00.120Z, 0.7
2023-02-28T02:18:00.114Z, 0.7
2023-02-28T02:20:00.108Z, 0
2023-02-28T02:22:00.103Z, 0
2023-02-28T02:24:00.096Z, 0
2023-02-28T02:26:00.099Z, 0
2023-02-28T02:28:00.124Z, 0
2023-02-28T02:30:00.105Z, 0.7
2023-02-28T02:32:00.103Z, 0
2023-02-28T02:34:00.065Z, 0
2023-02-28T02:36:00.132Z, 0.7
2023-02-28T02:38:00.062Z, 0
2023-02-28T02:40:00.067Z, 0
2023-02-28T02:42:00.054Z, 0
2023-02-28T02:44:00.103Z, 0
2023-02-28T02:46:00.047Z, 0
2023-02-28T02:48:00.074Z, 0
2023-02-28T02:50:00.053Z, 0
2023-02-28T02:52:00.072Z, 0
2023-02-28T02:54:00.049Z, 0
2023-02-28T02:56:00.038Z, 0
2023-02-28T02:58:00.093Z, 0
2023-02-28T03:00:00.121Z, 0
2023-02-28T03:02:00.104Z, 0
2023-02-28T03:04:00.177Z, 0
2023-02-28T03:06:00.140Z, 0
2023-02-28T03:08:00.106Z, 0
2023-02-28T03:10:00.106Z, 0
2023-02-28T03:12:00.113Z, 0
2023-02-28T03:14:00.138Z, 0
2023-02-28T03:16:00.235Z, 0.7
2023-02-28T03:18:00.101Z, 0
2023-02-28T03:20:00.160Z, 0
2023-02-28T03:22:00.137Z, 0.7
2023-02-28T03:24:00.123Z, 0
2023-02-28T03:26:00.123Z, 0
2023-02-28T03:28:00.124Z, 0
2023-02-28T03:30:00.089Z, 0.7
2023-02-28T03:32:00.172Z, 0
2023-02-28T03:34:00.062Z, 0
2023-02-28T03:36:00.171Z, 0
2023-02-28T03:38:00.043Z, 0
2023-02-28T03:40:00.040Z, 0
2023-02-28T03:42:00.056Z, 0
2023-02-28T03:44:00.057Z, 0
2023-02-28T03:46:00.166Z, 0
2023-02-28T03:48:00.110Z, 0
2023-02-28T03:50:00.105Z, 0
2023-02-28T03:52:00.068Z, 0
2023-02-28T03:54:00.085Z, 0
2023-02-28T03:56:00.087Z, 0
2023-02-28T03:58:00.098Z, 0
2023-02-28T04:00:00.139Z, 0
2023-02-28T04:02:00.188Z, 0
2023-02-28T04:04:00.103Z, 0
2023-02-28T04:06:00.100Z, 0
2023-02-28T04:08:00.100Z, 0
2023-02-28T04:10:00.147Z, 0
2023-02-28T04:12:00.142Z, 0
2023-02-28T04:14:00.100Z, 0
2023-02-28T04:16:00.195Z, 0
2023-02-28T04:18:00.130Z, 0
2023-02-28T04:20:00.140Z, 0
2023-02-28T04:22:00.149Z, 0
2023-02-28T04:24:00.120Z, 0
2023-02-28T04:26:00.121Z, 0
2023-02-28T04:28:00.128Z, 0
2023-02-28T04:30:00.103Z, 0
2023-02-28T04:32:00.410Z, 0
2023-02-28T04:34:00.067Z, 0
2023-02-28T04:36:00.108Z, 0
2023-02-28T04:38:00.051Z, 0
2023-02-28T04:40:00.049Z, 0
2023-02-28T04:42:00.050Z, 0
2023-02-28T04:44:00.078Z, 0
2023-02-28T04:46:00.128Z, 0
2023-02-28T04:48:00.075Z, 0
2023-02-28T04:50:00.120Z, 0
2023-02-28T04:52:00.086Z, 0
2023-02-28T04:54:00.060Z, 0
2023-02-28T04:56:00.059Z, 0
2023-02-28T04:58:00.107Z, 0
2023-02-28T05:00:00.147Z, 0
2023-02-28T05:02:00.108Z, 0
2023-02-28T05:04:00.109Z, 0
2023-02-28T05:06:00.100Z, 0
2023-02-28T05:08:00.110Z, 0
2023-02-28T05:10:00.160Z, 0
2023-02-28T05:12:00.093Z, 0
2023-02-28T05:14:00.109Z, 0
2023-02-28T05:16:00.206Z, 0
2023-02-28T05:18:00.118Z, 0
2023-02-28T05:20:13.455Z, 0
2023-02-28T05:22:00.127Z, 0
2023-02-28T05:24:00.111Z, 0
2023-02-28T05:26:00.113Z, 0
2023-02-28T05:28:00.084Z, 0
2023-02-28T05:30:00.077Z, 0
2023-02-28T05:32:00.285Z, 0
2023-02-28T05:34:00.056Z, 0
2023-02-28T05:36:00.209Z, 0
2023-02-28T05:38:00.064Z, 0
2023-02-28T05:40:00.078Z, 0
2023-02-28T05:42:00.060Z, 0
2023-02-28T05:44:00.069Z, 0
2023-02-28T05:46:00.129Z, 0
2023-02-28T05:48:00.096Z, 0
2023-02-28T05:50:00.130Z, 0
2023-02-28T05:52:00.060Z, 0
2023-02-28T05:54:00.082Z, 0
2023-02-28T05:56:00.039Z, 0
2023-02-28T05:58:00.104Z, 0
2023-02-28T06:00:00.093Z, 0
2023-02-28T06:02:00.188Z, 0
2023-02-28T06:04:00.133Z, 0.7
2023-02-28T06:06:00.112Z, 0.7
2023-02-28T06:08:00.095Z, 0
2023-02-28T06:10:00.169Z, 1.4
2023-02-28T06:12:00.127Z, 1.4
2023-02-28T06:14:00.136Z, 1.4
2023-02-28T06:16:00.131Z, 0.7
2023-02-28T06:18:00.108Z, 0.7
2023-02-28T06:20:00.124Z, 0.7
2023-02-28T06:22:00.114Z, 1.4
2023-02-28T06:24:00.128Z, 0.7
2023-02-28T06:26:00.129Z, 1.4
2023-02-28T06:28:00.096Z, 0.7
2023-02-28T06:30:00.045Z, 0.7
2023-02-28T06:32:00.081Z, 0.7
2023-02-28T06:34:00.029Z, 1.4
2023-02-28T06:36:00.135Z, 1.4
2023-02-28T06:38:00.054Z, 0.7
2023-02-28T06:40:00.119Z, 1.4
2023-02-28T06:42:00.071Z, 0.7
2023-02-28T06:44:00.056Z, 1.4
2023-02-28T06:46:00.074Z, 2.2
2023-02-28T06:48:00.136Z, 0.7
2023-02-28T06:50:00.099Z, 0.7
2023-02-28T06:52:00.091Z, 1.4
2023-02-28T06:54:00.054Z, 0.7
2023-02-28T06:56:00.046Z, 1.4
2023-02-28T06:58:00.101Z, 1.4
2023-02-28T07:00:00.095Z, 0.7
2023-02-28T07:02:00.206Z, 0.7
2023-02-28T07:04:00.113Z, 0.7
2023-02-28T07:06:00.144Z, 0.7
2023-02-28T07:08:00.118Z, 0.7
2023-02-28T07:10:00.148Z, 0
2023-02-28T07:12:00.118Z, 0.7
2023-02-28T07:14:00.121Z, 0.7
2023-02-28T07:16:00.163Z, 0.7
2023-02-28T07:18:00.115Z, 0.7
2023-02-28T07:20:00.155Z, 0.7
2023-02-28T07:22:00.114Z, 1.4
2023-02-28T07:24:00.135Z, 1.4
2023-02-28T07:26:00.126Z, 0.7
2023-02-28T07:28:00.081Z, 0.7
2023-02-28T07:30:00.044Z, 2.9
2023-02-28T07:32:00.128Z, 3.6
2023-02-28T07:34:00.011Z, 0.7
2023-02-28T07:36:00.187Z, 2.2
2023-02-28T07:38:00.069Z, 3.6
2023-02-28T07:40:00.090Z, 2.2
2023-02-28T07:42:00.098Z, 2.2
2023-02-28T07:44:00.050Z, 1.4
2023-02-28T07:46:00.053Z, 1.4
2023-02-28T07:48:00.113Z, 3.6
2023-02-28T07:50:00.050Z, 3.6
2023-02-28T07:52:00.142Z, 2.2
2023-02-28T07:54:00.067Z, 2.9
2023-02-28T07:56:00.052Z, 4.3
2023-02-28T07:58:00.127Z, 2.9
2023-02-28T08:00:00.115Z, 2.9
2023-02-28T08:02:00.215Z, 2.2
2023-02-28T08:04:00.134Z, 2.9
2023-02-28T08:06:00.125Z, 2.9
2023-02-28T08:08:00.123Z, 3.6
2023-02-28T08:10:00.131Z, 3.6
2023-02-28T08:12:00.138Z, 5.8
2023-02-28T08:14:00.103Z, 2.9
2023-02-28T08:16:00.181Z, 5
2023-02-28T08:18:00.127Z, 5
2023-02-28T08:20:00.168Z, 1.4
2023-02-28T08:22:00.126Z, 0.7
2023-02-28T08:24:00.113Z, 2.9
2023-02-28T08:26:00.123Z, 2.2
2023-02-28T08:28:00.106Z, 2.2
2023-02-28T08:30:00.075Z, 3.6
2023-02-28T08:32:00.322Z, 3.6
2023-02-28T08:34:00.108Z, 2.2
2023-02-28T08:36:00.082Z, 2.2
2023-02-28T08:38:00.061Z, 5.8
2023-02-28T08:40:00.078Z, 4.3
2023-02-28T08:42:07.327Z, 3.6
2023-02-28T08:44:00.077Z, 7.2
2023-02-28T08:46:00.158Z, 7.2
2023-02-28T08:48:00.062Z, 7.9
2023-02-28T08:50:00.062Z, 6.5
2023-02-28T08:52:00.083Z, 6.5
2023-02-28T08:54:00.061Z, 5.8
2023-02-28T08:56:00.041Z, 2.9
2023-02-28T08:58:00.125Z, 5.8
2023-02-28T09:00:00.140Z, 3.6
2023-02-28T09:02:00.117Z, 5
2023-02-28T09:04:00.166Z, 2.2
2023-02-28T09:06:00.104Z, 1.4
2023-02-28T09:08:00.126Z, 3.6
2023-02-28T09:10:00.123Z, 3.6
2023-02-28T09:12:00.162Z, 2.2
2023-02-28T09:14:00.185Z, 2.9
2023-02-28T09:16:00.118Z, 1.4
2023-02-28T09:18:00.125Z, 5
2023-02-28T09:20:00.137Z, 2.9
2023-02-28T09:22:00.110Z, 5
2023-02-28T09:24:00.142Z, 5
2023-02-28T09:26:00.132Z, 4.3
2023-02-28T09:28:00.090Z, 2.2
2023-02-28T09:30:00.084Z, 2.2
2023-02-28T09:32:00.145Z, 6.5
2023-02-28T09:34:00.056Z, 4.3
2023-02-28T09:36:00.147Z, 5
2023-02-28T09:38:00.062Z, 5
2023-02-28T09:40:00.128Z, 5.8
2023-02-28T09:42:00.109Z, 7.9
2023-02-28T09:44:00.047Z, 9.4
2023-02-28T09:46:00.157Z, 7.9
2023-02-28T09:48:00.045Z, 5.8
2023-02-28T09:50:00.054Z, 5
2023-02-28T09:52:00.049Z, 7.9
2023-02-28T09:54:02.119Z, 6.5
2023-02-28T09:56:00.057Z, 8.6
2023-02-28T09:58:00.103Z, 7.9
2023-02-28T10:00:00.141Z, 5
2023-02-28T10:02:00.113Z, 5.8
2023-02-28T10:04:00.144Z, 6.5
2023-02-28T10:06:00.115Z, 7.9
2023-02-28T10:08:00.234Z, 7.9
2023-02-28T10:10:00.181Z, 7.2
2023-02-28T10:12:00.156Z, 5.8
2023-02-28T10:14:00.126Z, 6.5
2023-02-28T10:16:00.156Z, 5.8
2023-02-28T10:20:00.148Z, 5.8
2023-02-28T10:22:00.151Z, 4.3
2023-02-28T10:24:00.124Z, 5
2023-02-28T10:26:00.190Z, 5
2023-02-28T10:28:00.095Z, 6.5
2023-02-28T10:30:00.093Z, 6.5
2023-02-28T10:32:00.072Z, 3.6
2023-02-28T10:34:00.029Z, 7.2
2023-02-28T10:36:00.132Z, 6.5
2023-02-28T10:38:00.102Z, 3.6
2023-02-28T10:40:00.058Z, 5
2023-02-28T10:42:00.082Z, 2.9
2023-02-28T10:44:00.054Z, 3.6
2023-02-28T10:46:00.152Z, 6.5
2023-02-28T10:48:00.049Z, 5
2023-02-28T10:50:00.064Z, 2.9
2023-02-28T10:52:00.086Z, 5
2023-02-28T10:54:01.916Z, 7.2
2023-02-28T10:56:00.045Z, 3.6
2023-02-28T10:58:00.119Z, 5
2023-02-28T11:00:00.109Z, 7.2
2023-02-28T11:02:00.248Z, 5
2023-02-28T11:04:00.141Z, 5
2023-02-28T11:06:00.109Z, 4.3
2023-02-28T11:08:00.123Z, 1.4
2023-02-28T11:10:00.152Z, 2.9
2023-02-28T11:12:00.146Z, 4.3
2023-02-28T11:14:00.131Z, 3.6
2023-02-28T11:16:00.236Z, 2.9
2023-02-28T11:18:00.112Z, 2.2
2023-02-28T11:20:00.157Z, 2.9
2023-02-28T11:22:00.128Z, 5
2023-02-28T11:24:00.128Z, 3.6
2023-02-28T11:26:00.127Z, 5
2023-02-28T11:28:00.104Z, 5.8
2023-02-28T11:30:00.038Z, 5.8
2023-02-28T11:32:00.100Z, 2.2
2023-02-28T11:34:00.013Z, 4.3
2023-02-28T11:36:00.199Z, 5
2023-02-28T11:38:00.104Z, 5
2023-02-28T11:40:00.065Z, 5.8
2023-02-28T11:42:00.050Z, 3.6
2023-02-28T11:44:00.034Z, 4.3
2023-02-28T11:46:00.035Z, 5
2023-02-28T11:48:00.051Z, 2.9
2023-02-28T11:50:00.037Z, 3.6
2023-02-28T11:52:00.043Z, 2.9
2023-02-28T11:54:00.038Z, 2.9
2023-02-28T11:56:00.050Z, 1.4
2023-02-28T11:58:00.138Z, 3.6
2023-02-28T12:00:00.103Z, 4.3
2023-02-28T12:02:00.246Z, 5
2023-02-28T12:04:00.110Z, 5
2023-02-28T12:06:00.115Z, 9.4
2023-02-28T12:08:00.104Z, 5
2023-02-28T12:10:00.153Z, 2.9
2023-02-28T12:12:00.149Z, 4.3
2023-02-28T12:14:00.130Z, 1.4
2023-02-28T12:16:00.250Z, 3.6
2023-02-28T12:18:00.146Z, 3.6
2023-02-28T12:20:00.151Z, 2.2
2023-02-28T12:22:00.140Z, 5
2023-02-28T12:24:00.154Z, 5
2023-02-28T12:26:00.160Z, 2.2
2023-02-28T12:28:00.117Z, 6.5
2023-02-28T12:30:00.058Z, 5.8
2023-02-28T12:32:00.205Z, 6.5
2023-02-28T12:34:00.028Z, 10.1
2023-02-28T12:36:00.155Z, 5
2023-02-28T12:38:00.069Z, 5.8
2023-02-28T12:40:00.135Z, 4.3
2023-02-28T12:42:00.049Z, 7.2
2023-02-28T12:44:00.048Z, 9.4
2023-02-28T12:46:00.204Z, 5.8
2023-02-28T12:48:00.086Z, 5.8
2023-02-28T12:50:00.062Z, 5.8
2023-02-28T12:52:00.103Z, 2.9
2023-02-28T12:54:00.050Z, 3.6
2023-02-28T12:56:00.045Z, 8.6
2023-02-28T12:58:00.129Z, 7.2
2023-02-28T13:00:00.144Z, 7.9
2023-02-28T13:02:00.205Z, 5
2023-02-28T13:04:00.109Z, 5
2023-02-28T13:06:00.128Z, 5
2023-02-28T13:08:00.132Z, 5.8
2023-02-28T13:10:00.134Z, 8.6
2023-02-28T13:12:00.121Z, 5
2023-02-28T13:14:00.114Z, 3.6
2023-02-28T13:16:00.127Z, 3.6
2023-02-28T13:18:00.139Z, 3.6
2023-02-28T13:20:00.157Z, 5.8
2023-02-28T13:22:00.115Z, 13.7
2023-02-28T13:24:00.086Z, 5.8
2023-02-28T13:26:00.124Z, 5.8
2023-02-28T13:28:00.107Z, 5
2023-02-28T13:30:00.131Z, 7.9
2023-02-28T13:32:00.109Z, 5
2023-02-28T13:34:00.093Z, 3.6
2023-02-28T13:36:00.149Z, 2.9
2023-02-28T13:38:00.057Z, 7.9
2023-02-28T13:40:00.134Z, 2.2
2023-02-28T13:42:00.070Z, 2.9
2023-02-28T13:44:00.141Z, 2.9
2023-02-28T13:46:00.174Z, 7.9
2023-02-28T13:48:00.098Z, 7.2
2023-02-28T13:50:00.090Z, 7.9
2023-02-28T13:52:00.081Z, 5.8
2023-02-28T13:54:00.048Z, 5
2023-02-28T13:56:00.055Z, 5.8
2023-02-28T13:58:00.104Z, 5.8
2023-02-28T14:00:00.132Z, 6.5
2023-02-28T14:02:00.122Z, 7.9
2023-02-28T14:04:00.126Z, 5.8
2023-02-28T14:06:00.105Z, 3.6
2023-02-28T14:08:00.117Z, 3.6
2023-02-28T14:10:00.120Z, 2.2
2023-02-28T14:12:00.129Z, 3.6
2023-02-28T14:14:00.100Z, 1.4
2023-02-28T14:16:00.185Z, 5
2023-02-28T14:18:00.102Z, 5.8
2023-02-28T14:20:00.152Z, 3.6
2023-02-28T14:22:00.136Z, 5.8
2023-02-28T14:24:00.116Z, 8.6
2023-02-28T14:26:00.117Z, 5.8
2023-02-28T14:28:00.102Z, 5
2023-02-28T14:30:00.042Z, 5
2023-02-28T14:32:00.213Z, 6.5
2023-02-28T14:34:00.081Z, 5
2023-02-28T14:36:00.157Z, 3.6
2023-02-28T14:38:00.056Z, 2.9
2023-02-28T14:40:00.066Z, 1.4
2023-02-28T14:42:00.044Z, 5
2023-02-28T14:44:00.080Z, 2.9
2023-02-28T14:46:00.068Z, 2.9
2023-02-28T14:48:00.053Z, 3.6
2023-02-28T14:50:00.085Z, 2.2
2023-02-28T14:52:00.057Z, 2.9
2023-02-28T14:54:00.060Z, 3.6
2023-02-28T14:56:00.060Z, 3.6
2023-02-28T14:58:00.099Z, 5
2023-02-28T15:00:00.177Z, 5.8
2023-02-28T15:02:00.207Z, 6.5
2023-02-28T15:04:00.116Z, 5
2023-02-28T15:06:00.128Z, 5.8
2023-02-28T15:08:00.138Z, 2.9
2023-02-28T15:10:00.124Z, 2.9
2023-02-28T15:12:00.113Z, 2.9
2023-02-28T15:14:00.115Z, 4.3
2023-02-28T15:16:02.656Z, 5.8
2023-02-28T15:18:00.128Z, 5.8
2023-02-28T15:20:00.220Z, 3.6
2023-02-28T15:22:00.125Z, 4.3
2023-02-28T15:24:00.119Z, 5
2023-02-28T15:26:00.185Z, 6.5
2023-02-28T15:28:00.111Z, 5
2023-02-28T15:30:00.085Z, 4.3
2023-02-28T15:32:00.183Z, 3.6
2023-02-28T15:34:00.044Z, 5
2023-02-28T15:36:00.099Z, 5
2023-02-28T15:38:00.077Z, 1.4
2023-02-28T15:40:00.043Z, 2.9
2023-02-28T15:42:00.042Z, 3.6
2023-02-28T15:44:00.034Z, 6.5
2023-02-28T15:46:00.080Z, 3.6
2023-02-28T15:48:08.762Z, 2.9
2023-02-28T15:50:00.107Z, 5.8
2023-02-28T15:52:00.029Z, 2.2
2023-02-28T15:54:00.024Z, 3.6
2023-02-28T15:56:00.032Z, 3.6
2023-02-28T15:58:00.155Z, 2.9
2023-02-28T16:00:00.138Z, 2.9
2023-02-28T16:02:00.426Z, 2.9
2023-02-28T16:04:00.131Z, 2.2
2023-02-28T16:06:00.100Z, 3.6
2023-02-28T16:08:00.107Z, 3.6
2023-02-28T16:10:00.193Z, 1.4
2023-02-28T16:12:00.102Z, 2.9
2023-02-28T16:14:00.126Z, 3.6
2023-02-28T16:16:00.104Z, 1.4
2023-02-28T16:18:00.123Z, 2.2
2023-02-28T16:20:00.267Z, 2.2
2023-02-28T16:22:00.108Z, 2.2
2023-02-28T16:24:00.108Z, 2.2
2023-02-28T16:26:00.117Z, 0.7
2023-02-28T16:28:00.099Z, 0.7
2023-02-28T16:30:00.153Z, 2.2
2023-02-28T16:32:00.145Z, 1.4
2023-02-28T16:34:00.050Z, 0.7
2023-02-28T16:36:00.091Z, 0.7
2023-02-28T16:38:00.048Z, 0
2023-02-28T16:40:00.080Z, 0.7
2023-02-28T16:42:00.019Z, 0.7
2023-02-28T16:44:00.038Z, 0.7
2023-02-28T16:46:01.526Z, 0
2023-02-28T16:48:00.039Z, 0.7
2023-02-28T16:50:00.065Z, 0.7
2023-02-28T16:52:00.049Z, 0.7
2023-02-28T16:54:00.024Z, 0.7
2023-02-28T16:56:00.010Z, 1.4
2023-02-28T16:58:00.109Z, 1.4
2023-02-28T17:00:00.150Z, 0.7
2023-02-28T17:02:00.247Z, 1.4
2023-02-28T17:04:00.224Z, 0.7
2023-02-28T17:06:00.123Z, 1.4
2023-02-28T17:08:00.129Z, 1.4
2023-02-28T17:10:00.154Z, 0.7
2023-02-28T17:12:00.117Z, 1.4
2023-02-28T17:14:00.159Z, 0.7
2023-02-28T17:16:00.290Z, 0.7
2023-02-28T17:18:00.120Z, 1.4
2023-02-28T17:20:00.120Z, 0.7
2023-02-28T17:22:00.112Z, 1.4
2023-02-28T17:24:00.142Z, 0.7
2023-02-28T17:26:00.116Z, 0.7
2023-02-28T17:28:00.104Z, 0.7
2023-02-28T17:30:00.095Z, 0.7
2023-02-28T17:32:03.149Z, 0.7
2023-02-28T17:34:00.047Z, 0.7
2023-02-28T17:36:00.141Z, 0.7
2023-02-28T17:38:00.137Z, 0.7
2023-02-28T17:40:00.039Z, 0.7
2023-02-28T17:42:00.031Z, 0
2023-02-28T17:44:00.054Z, 0
2023-02-28T17:46:00.141Z, 0
2023-02-28T17:48:00.048Z, 0
2023-02-28T17:50:00.165Z, 0
2023-02-28T17:52:00.058Z, 0
2023-02-28T17:54:00.094Z, 0
2023-02-28T17:56:00.093Z, 0
2023-02-28T17:58:00.124Z, 0
2023-02-28T18:00:00.157Z, 0
2023-02-28T18:02:00.163Z, 0
2023-02-28T18:04:00.160Z, 0
2023-02-28T18:06:00.112Z, 0
2023-02-28T18:08:00.126Z, 0
2023-02-28T18:10:00.106Z, 0
2023-02-28T18:12:00.130Z, 0
2023-02-28T18:14:00.142Z, 0
2023-02-28T18:16:00.196Z, 0
2023-02-28T18:18:00.116Z, 0
2023-02-28T18:20:00.134Z, 0
2023-02-28T18:22:00.119Z, 0
2023-02-28T18:24:00.132Z, 0
2023-02-28T18:26:00.117Z, 0
2023-02-28T18:28:00.102Z, 0
2023-02-28T18:30:00.152Z, 0
2023-02-28T18:32:00.116Z, 0
2023-02-28T18:34:00.053Z, 0
2023-02-28T18:36:00.158Z, 0
2023-02-28T18:38:00.053Z, 0
2023-02-28T18:40:00.130Z, 0
2023-02-28T18:42:00.035Z, 0
2023-02-28T18:44:03.073Z, 0
2023-02-28T18:46:00.041Z, 0
2023-02-28T18:48:00.052Z, 0
2023-02-28T18:50:00.993Z, 0
2023-02-28T18:52:00.023Z, 0
2023-02-28T18:54:00.037Z, 0
2023-02-28T18:56:00.012Z, 0
2023-02-28T18:58:00.110Z, 0
2023-02-28T19:00:00.158Z, 0
2023-02-28T19:02:00.123Z, 0
2023-02-28T19:04:00.214Z, 0
2023-02-28T19:06:00.117Z, 0
2023-02-28T19:08:00.099Z, 0
2023-02-28T19:10:00.114Z, 0
2023-02-28T19:12:00.122Z, 0
2023-02-28T19:14:00.109Z, 0
2023-02-28T19:16:00.192Z, 0
2023-02-28T19:18:00.110Z, 0
2023-02-28T19:20:00.116Z, 0
2023-02-28T19:22:00.111Z, 0
2023-02-28T19:24:00.108Z, 0
2023-02-28T19:26:00.117Z, 0
2023-02-28T19:28:00.237Z, 0
2023-02-28T19:30:00.055Z, 0
2023-02-28T19:32:00.183Z, 0
2023-02-28T19:34:00.045Z, 0
2023-02-28T19:36:00.049Z, 0
2023-02-28T19:38:00.036Z, 0
2023-02-28T19:40:00.042Z, 0
2023-02-28T19:42:00.041Z, 0
2023-02-28T19:44:00.056Z, 0
2023-02-28T19:46:00.189Z, 0
2023-02-28T19:48:00.065Z, 0
2023-02-28T19:50:00.079Z, 0
2023-02-28T19:52:00.097Z, 0
2023-02-28T19:54:00.114Z, 0
2023-02-28T19:56:00.162Z, 0
2023-02-28T19:58:00.148Z, 0
2023-02-28T20:00:00.167Z, 0
2023-02-28T20:02:00.151Z, 0
2023-02-28T20:04:00.109Z, 0
2023-02-28T20:06:00.090Z, 0
2023-02-28T20:08:00.095Z, 0
2023-02-28T20:10:00.126Z, 0
2023-02-28T20:12:00.342Z, 0
2023-02-28T20:14:00.106Z, 0
2023-02-28T20:16:00.108Z, 0
2023-02-28T20:18:00.127Z, 0
2023-02-28T20:20:00.131Z, 0.7
2023-02-28T20:22:00.102Z, 0
2023-02-28T20:24:00.117Z, 0
2023-02-28T20:26:00.115Z, 0
2023-02-28T20:28:00.093Z, 0
2023-02-28T20:30:00.100Z, 0
2023-02-28T20:32:00.147Z, 0
2023-02-28T20:34:00.058Z, 0
2023-02-28T20:36:00.186Z, 0
2023-02-28T20:38:00.080Z, 0
2023-02-28T20:40:00.113Z, 0
2023-02-28T20:42:00.042Z, 0
2023-02-28T20:44:00.044Z, 0
2023-02-28T20:46:00.150Z, 0
2023-02-28T20:48:00.066Z, 0
2023-02-28T20:50:00.062Z, 0
2023-02-28T20:52:00.051Z, 0
2023-02-28T20:54:00.054Z, 0
2023-02-28T20:56:00.027Z, 0
2023-02-28T20:58:00.123Z, 0
2023-02-28T21:00:00.128Z, 0
2023-02-28T21:02:00.104Z, 0
2023-02-28T21:04:00.125Z, 0
2023-02-28T21:06:00.107Z, 0
2023-02-28T21:08:00.121Z, 0
2023-02-28T21:10:00.144Z, 0
2023-02-28T21:12:00.112Z, 0
2023-02-28T21:14:00.142Z, 0
2023-02-28T21:16:00.207Z, 0
2023-02-28T21:18:00.134Z, 0
2023-02-28T21:20:00.106Z, 0
2023-02-28T21:22:00.109Z, 0
2023-02-28T21:24:00.127Z, 0
2023-02-28T21:26:00.125Z, 0
2023-02-28T21:28:00.119Z, 0
2023-02-28T21:30:00.066Z, 0
2023-02-28T21:32:00.101Z, 0
2023-02-28T21:34:00.077Z, 0
2023-02-28T21:36:00.142Z, 0
2023-02-28T21:38:00.056Z, 0
2023-02-28T21:40:00.050Z, 0
2023-02-28T21:42:00.043Z, 0
2023-02-28T21:44:00.100Z, 0
2023-02-28T21:46:00.065Z, 0
2023-02-28T21:48:00.048Z, 0
2023-02-28T21:50:00.099Z, 0
2023-02-28T21:52:00.053Z, 0
2023-02-28T21:54:00.037Z, 0
2023-02-28T21:56:00.038Z, 0
2023-02-28T21:58:00.109Z, 0
2023-02-28T22:00:00.152Z, 0
2023-02-28T22:02:00.272Z, 0
2023-02-28T22:04:00.172Z, 0
2023-02-28T22:06:00.118Z, 0
2023-02-28T22:08:00.116Z, 0
2023-02-28T22:10:00.149Z, 0
2023-02-28T22:12:00.150Z, 0
2023-02-28T22:14:00.124Z, 0
2023-02-28T22:16:00.168Z, 0
2023-02-28T22:18:00.130Z, 0
2023-02-28T22:20:00.160Z, 0
2023-02-28T22:22:00.115Z, 0
2023-02-28T22:24:00.107Z, 0
2023-02-28T22:26:00.107Z, 0
2023-02-28T22:28:00.077Z, 0
2023-02-28T22:30:00.105Z, 0
2023-02-28T22:32:00.130Z, 0
2023-02-28T22:34:00.048Z, 0
2023-02-28T22:36:00.100Z, 0
2023-02-28T22:38:00.054Z, 0
2023-02-28T22:40:00.092Z, 0.7
2023-02-28T22:42:00.037Z, 0
2023-02-28T22:44:00.106Z, 0.7
2023-02-28T22:46:00.036Z, 0
2023-02-28T22:48:00.045Z, 0
2023-02-28T22:50:00.101Z, 0
2023-02-28T22:52:00.048Z, 0
2023-02-28T22:54:00.029Z, 0
2023-02-28T22:56:00.029Z, 0
2023-02-28T22:58:00.102Z, 0
2023-02-28T23:00:00.142Z, 0
2023-02-28T23:02:00.113Z, 0
2023-02-28T23:04:00.217Z, 0
2023-02-28T23:06:00.117Z, 0
2023-02-28T23:08:00.118Z, 0
2023-02-28T23:10:00.124Z, 0
2023-02-28T23:12:00.146Z, 0
2023-02-28T23:14:00.193Z, 0
2023-02-28T23:16:00.198Z, 0
2023-02-28T23:18:00.120Z, 0
2023-02-28T23:20:00.118Z, 0
2023-02-28T23:22:00.108Z, 0
2023-02-28T23:24:00.121Z, 0
2023-02-28T23:26:00.110Z, 0
2023-02-28T23:28:00.097Z, 0
2023-02-28T23:30:00.105Z, 0
2023-02-28T23:32:00.253Z, 0
2023-02-28T23:34:00.053Z, 0
2023-02-28T23:36:00.060Z, 0
2023-02-28T23:38:00.049Z, 0
2023-02-28T23:40:00.043Z, 1.4
2023-02-28T23:42:00.083Z, 1.4
2023-02-28T23:44:00.074Z, 1.4
2023-02-28T23:46:00.175Z, 0
2023-02-28T23:48:00.038Z, 0
2023-02-28T23:50:00.050Z, 0
2023-02-28T23:52:00.083Z, 0
2023-02-28T23:54:00.035Z, 0
2023-02-28T23:56:00.049Z, 0
2023-02-28T23:58:00.086Z, 0
